Date,TemperatureHighF,TemperatureAvgF,TemperatureLowF,DewpointHighF,DewpointAvgF,DewpointLowF,HumidityHigh,HumidityAvg,HumidityLow,PressureMaxIn,PressureMinIn,WindSpeedMaxMPH,WindSpeedAvgMPH,GustSpeedMaxMPH,PrecipitationSumIn
2013-3-1,41.7,39.2,35.1,31.0,27.3,22.8,81,63,51,29.93,29.82,14,2,16,0.00
2013-3-2,38.7,36.0,33.1,25.3,21.8,18.6,61,56,50,29.95,29.86,22,3,22,0.00
2013-3-3,36.6,32.6,30.2,20.2,18.1,13.5,62,55,47,30.01,29.90,21,5,21,0.00
2013-3-4,50.1,36.5,28.7,25.6,16.0,11.1,71,45,22,30.12,30.00,23,3,23,0.00
2013-3-5,49.2,40.1,33.8,37.5,31.1,24.4,93,72,45,30.09,29.64,14,2,15,0.75
2013-3-6,43.9,38.2,34.1,33.4,30.2,27.5,93,74,58,30.09,29.61,25,5,29,0.20
2013-3-7,44.3,40.8,38.6,29.6,27.9,25.1,67,60,50,30.25,30.08,23,4,23,0.00
2013-3-8,50.9,43.5,39.4,28.1,25.7,21.8,62,50,37,30.34,30.21,19,4,21,0.00
2013-3-9,60.4,45.7,34.9,38.8,30.5,26.4,82,58,32,30.38,30.25,10,2,11,0.00
2013-3-10,64.7,47.4,32.5,40.8,34.5,29.9,91,65,34,30.33,30.18,17,1,17,0.00
2013-3-11,60.0,48.4,38.5,52.1,41.3,30.6,89,77,49,30.21,29.88,8,1,9,0.00
2013-3-12,59.5,53.2,43.5,54.1,43.2,31.3,95,71,45,30.00,29.70,20,3,23,0.61
2013-3-13,45.9,40.5,34.0,33.3,27.2,17.5,88,60,38,30.18,29.97,24,4,28,0.00
2013-3-14,47.9,38.4,31.7,26.3,18.7,15.9,64,46,28,30.25,30.13,25,4,25,0.00
2013-3-15,62.3,46.4,31.1,39.2,30.4,20.6,78,55,37,30.18,29.85,20,3,22,0.00
2013-3-16,77.7,55.6,41.3,54.4,44.5,37.1,91,70,34,29.86,29.57,29,3,33,0.04
2013-3-17,51.4,42.9,37.1,47.9,40.0,35.0,94,89,84,30.22,29.83,11,2,12,0.16
2013-3-18,37.2,34.9,33.6,35.3,33.0,31.8,100,93,92,30.25,29.91,11,2,13,0.19
2013-3-19,60.2,46.8,34.8,42.1,25.6,4.4,96,54,13,30.04,29.81,32,6,32,0.00
2013-3-20,53.5,45.1,35.5,30.4,16.6,7.6,64,33,19,30.08,29.78,20,4,25,0.00
2013-3-21,43.1,33.7,29.2,28.5,15.9,10.2,63,48,36,30.01,29.79,21,5,24,0.00
2013-3-22,50.3,36.0,26.3,27.6,16.7,11.8,71,47,25,30.09,29.95,17,3,20,0.00
2013-3-23,56.7,42.9,31.9,36.8,27.4,19.6,82,57,31,30.07,29.90,13,1,13,0.00
2013-3-24,41.9,35.8,33.0,34.4,30.3,24.2,93,82,51,29.96,29.61,13,2,15,0.17
2013-3-25,43.4,36.9,32.5,34.4,29.0,23.4,93,75,46,29.79,29.57,24,3,26,0.58
2013-3-26,45.5,40.9,37.0,30.8,27.2,24.8,73,58,45,30.13,29.78,15,4,19,0.00
2013-3-27,44.7,39.6,34.6,30.7,26.7,22.6,80,61,45,30.25,30.13,20,3,26,0.00
2013-3-28,50.3,42.5,35.3,30.9,26.3,22.3,79,54,37,30.29,30.20,23,4,27,0.00
2013-3-29,57.6,44.2,32.0,36.5,28.7,23.1,87,59,28,30.34,30.17,15,2,18,0.00
2013-3-30,62.9,47.8,34.8,41.0,33.6,29.6,90,63,29,30.27,30.07,14,1,14,0.00
2013-3-31,60.8,49.5,43.4,52.8,45.2,38.0,95,86,73,30.09,29.76,10,1,10,0.32